sensor_id;sensor_type;location;lat;lon;timestamp;P1;P2;P0
69746;PMS7003;57018;50.278;19.134;2022-08-19T00:00:24;24.75;23.75;15.00
69746;PMS7003;57018;50.278;19.134;2022-08-19T00:02:53;28.75;28.25;18.25
69746;PMS7003;57018;50.278;19.134;2022-08-19T00:05:20;23.00;21.50;15.00
69746;PMS7003;57018;50.278;19.134;2022-08-19T00:07:47;29.50;28.00;19.75
69746;PMS7003;57018;50.278;19.134;2022-08-19T00:10:15;26.25;22.25;17.00
69746;PMS7003;57018;50.278;19.134;2022-08-19T00:12:44;28.00;27.50;19.75
69746;PMS7003;57018;50.278;19.134;2022-08-19T00:15:11;27.00;24.25;16.00
69746;PMS7003;57018;50.278;19.134;2022-08-19T00:17:40;25.75;24.75;17.00
69746;PMS7003;57018;50.278;19.134;2022-08-19T00:20:09;29.50;28.00;18.75
69746;PMS7003;57018;50.278;19.134;2022-08-19T00:22:37;34.00;28.50;20.75
69746;PMS7003;57018;50.278;19.134;2022-08-19T00:25:05;27.50;27.50;18.50
69746;PMS7003;57018;50.278;19.134;2022-08-19T00:27:33;26.50;26.00;16.50
69746;PMS7003;57018;50.278;19.134;2022-08-19T00:29:59;28.50;24.75;18.00
69746;PMS7003;57018;50.278;19.134;2022-08-19T00:32:28;31.25;26.75;18.75
69746;PMS7003;57018;50.278;19.134;2022-08-19T00:34:56;29.00;28.25;18.00
69746;PMS7003;57018;50.278;19.134;2022-08-19T00:37:22;28.75;27.50;18.00
69746;PMS7003;57018;50.278;19.134;2022-08-19T00:39:51;26.00;24.75;19.50
69746;PMS7003;57018;50.278;19.134;2022-08-19T00:42:18;34.50;29.50;20.25
69746;PMS7003;57018;50.278;19.134;2022-08-19T00:44:46;25.00;25.00;17.75
69746;PMS7003;57018;50.278;19.134;2022-08-19T00:47:14;26.75;26.25;17.75
69746;PMS7003;57018;50.278;19.134;2022-08-19T00:49:45;25.25;25.25;19.25
69746;PMS7003;57018;50.278;19.134;2022-08-19T00:52:12;35.75;32.25;21.00
69746;PMS7003;57018;50.278;19.134;2022-08-19T00:54:41;31.50;27.50;20.00
69746;PMS7003;57018;50.278;19.134;2022-08-19T00:57:11;26.75;24.25;15.25
69746;PMS7003;57018;50.278;19.134;2022-08-19T00:59:39;28.00;27.50;20.00
69746;PMS7003;57018;50.278;19.134;2022-08-19T01:02:06;28.00;27.25;19.50
69746;PMS7003;57018;50.278;19.134;2022-08-19T01:04:32;29.00;26.25;18.75
69746;PMS7003;57018;50.278;19.134;2022-08-19T01:06:58;29.50;26.50;19.25
69746;PMS7003;57018;50.278;19.134;2022-08-19T01:09:26;35.75;32.75;21.25
69746;PMS7003;57018;50.278;19.134;2022-08-19T01:11:52;30.00;29.00;19.75
69746;PMS7003;57018;50.278;19.134;2022-08-19T01:14:19;31.50;27.75;17.75
69746;PMS7003;57018;50.278;19.134;2022-08-19T01:16:45;31.50;26.75;18.75
69746;PMS7003;57018;50.278;19.134;2022-08-19T01:19:21;29.00;27.75;17.25
69746;PMS7003;57018;50.278;19.134;2022-08-19T01:22:09;29.50;26.50;18.50
69746;PMS7003;57018;50.278;19.134;2022-08-19T01:24:44;25.75;23.75;19.25
69746;PMS7003;57018;50.278;19.134;2022-08-19T01:27:10;32.00;26.75;19.50
69746;PMS7003;57018;50.278;19.134;2022-08-19T01:29:37;29.50;25.75;17.50
69746;PMS7003;57018;50.278;19.134;2022-08-19T01:32:06;26.50;25.25;17.25
69746;PMS7003;57018;50.278;19.134;2022-08-19T01:34:34;24.25;23.00;18.00
69746;PMS7003;57018;50.278;19.134;2022-08-19T01:37:01;31.50;26.50;19.25
69746;PMS7003;57018;50.278;19.134;2022-08-19T01:39:30;31.50;29.00;20.50
69746;PMS7003;57018;50.278;19.134;2022-08-19T01:41:56;26.50;26.00;19.25
69746;PMS7003;57018;50.278;19.134;2022-08-19T01:44:22;30.25;29.25;19.00
69746;PMS7003;57018;50.278;19.134;2022-08-19T01:46:49;30.50;29.25;19.75
69746;PMS7003;57018;50.278;19.134;2022-08-19T01:49:18;31.50;25.25;17.75
69746;PMS7003;57018;50.278;19.134;2022-08-19T01:51:47;30.25;30.00;20.75
69746;PMS7003;57018;50.278;19.134;2022-08-19T01:54:15;34.00;30.00;20.25
69746;PMS7003;57018;50.278;19.134;2022-08-19T01:56:43;32.50;30.50;19.25
69746;PMS7003;57018;50.278;19.134;2022-08-19T01:59:13;34.00;31.50;19.00
69746;PMS7003;57018;50.278;19.134;2022-08-19T02:01:42;26.50;26.50;17.50
69746;PMS7003;57018;50.278;19.134;2022-08-19T02:04:08;34.00;29.25;20.50
69746;PMS7003;57018;50.278;19.134;2022-08-19T02:06:34;27.50;26.25;18.50
69746;PMS7003;57018;50.278;19.134;2022-08-19T02:09:01;32.50;31.50;19.75
69746;PMS7003;57018;50.278;19.134;2022-08-19T02:11:31;31.25;28.25;17.25
69746;PMS7003;57018;50.278;19.134;2022-08-19T02:13:59;31.75;26.75;20.75
69746;PMS7003;57018;50.278;19.134;2022-08-19T02:16:27;29.50;29.25;19.75
69746;PMS7003;57018;50.278;19.134;2022-08-19T02:18:54;31.00;30.50;19.50
69746;PMS7003;57018;50.278;19.134;2022-08-19T02:21:21;35.25;32.00;20.75
69746;PMS7003;57018;50.278;19.134;2022-08-19T02:23:48;33.25;29.25;19.75
69746;PMS7003;57018;50.278;19.134;2022-08-19T02:26:15;31.25;30.50;20.00
69746;PMS7003;57018;50.278;19.134;2022-08-19T02:28:42;30.25;28.00;18.50
69746;PMS7003;57018;50.278;19.134;2022-08-19T02:31:10;30.00;27.75;18.50
69746;PMS7003;57018;50.278;19.134;2022-08-19T02:33:38;32.50;27.50;18.50
69746;PMS7003;57018;50.278;19.134;2022-08-19T02:36:05;33.25;31.00;21.00
69746;PMS7003;57018;50.278;19.134;2022-08-19T02:38:32;30.75;30.50;20.50
69746;PMS7003;57018;50.278;19.134;2022-08-19T02:41:02;28.50;28.00;18.50
69746;PMS7003;57018;50.278;19.134;2022-08-19T02:43:33;31.50;30.25;21.25
69746;PMS7003;57018;50.278;19.134;2022-08-19T02:46:00;39.00;31.25;20.25
69746;PMS7003;57018;50.278;19.134;2022-08-19T02:48:27;32.25;29.25;20.50
69746;PMS7003;57018;50.278;19.134;2022-08-19T02:50:53;34.50;32.25;19.50
69746;PMS7003;57018;50.278;19.134;2022-08-19T02:53:23;32.00;29.50;19.00
69746;PMS7003;57018;50.278;19.134;2022-08-19T02:55:51;31.25;29.00;20.00
69746;PMS7003;57018;50.278;19.134;2022-08-19T02:58:18;35.25;33.00;21.25
69746;PMS7003;57018;50.278;19.134;2022-08-19T03:00:51;32.00;28.25;20.50
69746;PMS7003;57018;50.278;19.134;2022-08-19T03:03:16;27.00;26.75;20.00
69746;PMS7003;57018;50.278;19.134;2022-08-19T03:05:43;33.00;28.25;18.75
69746;PMS7003;57018;50.278;19.134;2022-08-19T03:08:10;30.00;27.25;19.25
69746;PMS7003;57018;50.278;19.134;2022-08-19T03:10:44;27.50;27.25;17.00
69746;PMS7003;57018;50.278;19.134;2022-08-19T03:13:17;31.25;29.75;20.50
69746;PMS7003;57018;50.278;19.134;2022-08-19T03:15:43;36.00;31.25;20.75
69746;PMS7003;57018;50.278;19.134;2022-08-19T03:18:12;32.50;27.00;19.00
69746;PMS7003;57018;50.278;19.134;2022-08-19T03:20:45;27.75;27.50;19.00
69746;PMS7003;57018;50.278;19.134;2022-08-19T03:23:13;31.00;30.00;20.00
69746;PMS7003;57018;50.278;19.134;2022-08-19T03:25:41;24.25;24.25;19.25
69746;PMS7003;57018;50.278;19.134;2022-08-19T03:28:10;31.50;27.25;18.50
69746;PMS7003;57018;50.278;19.134;2022-08-19T03:30:37;32.00;28.75;20.50
69746;PMS7003;57018;50.278;19.134;2022-08-19T03:33:11;35.75;33.25;20.75
69746;PMS7003;57018;50.278;19.134;2022-08-19T03:35:34;29.00;26.75;18.50
69746;PMS7003;57018;50.278;19.134;2022-08-19T03:38:04;31.00;25.75;18.00
69746;PMS7003;57018;50.278;19.134;2022-08-19T03:40:32;26.75;25.00;17.50
69746;PMS7003;57018;50.278;19.134;2022-08-19T03:43:00;31.00;27.00;17.75
69746;PMS7003;57018;50.278;19.134;2022-08-19T03:45:26;32.00;31.00;20.25
69746;PMS7003;57018;50.278;19.134;2022-08-19T03:47:53;32.00;30.25;19.25
69746;PMS7003;57018;50.278;19.134;2022-08-19T03:50:19;28.75;27.75;19.00
69746;PMS7003;57018;50.278;19.134;2022-08-19T03:52:51;28.50;27.25;19.50
69746;PMS7003;57018;50.278;19.134;2022-08-19T03:55:18;27.50;26.50;17.75
69746;PMS7003;57018;50.278;19.134;2022-08-19T03:57:45;34.50;31.25;18.50
69746;PMS7003;57018;50.278;19.134;2022-08-19T04:00:13;31.00;28.50;18.75
69746;PMS7003;57018;50.278;19.134;2022-08-19T04:02:41;27.00;27.00;16.75
69746;PMS7003;57018;50.278;19.134;2022-08-19T04:05:08;26.00;25.50;18.00
69746;PMS7003;57018;50.278;19.134;2022-08-19T04:07:34;18.50;18.25;11.75
69746;PMS7003;57018;50.278;19.134;2022-08-19T04:10:00;26.50;25.25;17.25
69746;PMS7003;57018;50.278;19.134;2022-08-19T04:12:28;32.50;28.75;20.25
69746;PMS7003;57018;50.278;19.134;2022-08-19T04:14:54;33.50;31.75;20.00
69746;PMS7003;57018;50.278;19.134;2022-08-19T04:17:20;31.50;29.25;19.75
69746;PMS7003;57018;50.278;19.134;2022-08-19T04:19:47;28.50;27.25;17.25
69746;PMS7003;57018;50.278;19.134;2022-08-19T04:22:13;31.25;27.75;17.50
69746;PMS7003;57018;50.278;19.134;2022-08-19T04:24:42;25.25;24.25;14.75
69746;PMS7003;57018;50.278;19.134;2022-08-19T04:27:09;34.00;29.75;19.50
69746;PMS7003;57018;50.278;19.134;2022-08-19T04:29:35;25.50;24.75;17.25
69746;PMS7003;57018;50.278;19.134;2022-08-19T04:32:03;31.50;27.50;17.75
69746;PMS7003;57018;50.278;19.134;2022-08-19T04:34:30;36.00;30.50;21.00
69746;PMS7003;57018;50.278;19.134;2022-08-19T04:36:57;28.25;27.00;19.00
69746;PMS7003;57018;50.278;19.134;2022-08-19T04:39:29;30.50;25.00;17.75
69746;PMS7003;57018;50.278;19.134;2022-08-19T04:41:55;29.50;28.75;21.25
69746;PMS7003;57018;50.278;19.134;2022-08-19T04:44:39;31.00;27.75;18.75
69746;PMS7003;57018;50.278;19.134;2022-08-19T04:47:07;29.75;26.50;18.50
69746;PMS7003;57018;50.278;19.134;2022-08-19T04:49:33;36.75;31.25;21.25
69746;PMS7003;57018;50.278;19.134;2022-08-19T04:51:59;28.00;25.75;19.25
69746;PMS7003;57018;50.278;19.134;2022-08-19T04:54:26;30.00;28.50;18.75
69746;PMS7003;57018;50.278;19.134;2022-08-19T04:56:52;29.75;24.75;18.00
69746;PMS7003;57018;50.278;19.134;2022-08-19T04:59:19;28.50;24.50;18.25
69746;PMS7003;57018;50.278;19.134;2022-08-19T05:01:46;32.00;30.00;21.00
69746;PMS7003;57018;50.278;19.134;2022-08-19T05:04:16;32.00;30.00;20.75
69746;PMS7003;57018;50.278;19.134;2022-08-19T05:06:45;29.75;28.25;20.00
69746;PMS7003;57018;50.278;19.134;2022-08-19T05:09:13;28.50;27.25;18.75
69746;PMS7003;57018;50.278;19.134;2022-08-19T05:11:40;27.75;23.50;15.00
69746;PMS7003;57018;50.278;19.134;2022-08-19T05:14:07;34.25;32.00;19.00
69746;PMS7003;57018;50.278;19.134;2022-08-19T05:16:34;28.25;26.00;17.75
69746;PMS7003;57018;50.278;19.134;2022-08-19T05:19:00;27.25;25.50;17.25
69746;PMS7003;57018;50.278;19.134;2022-08-19T05:21:45;28.75;28.50;19.75
69746;PMS7003;57018;50.278;19.134;2022-08-19T05:24:30;29.00;29.00;19.50
69746;PMS7003;57018;50.278;19.134;2022-08-19T05:26:58;28.50;26.50;18.75
69746;PMS7003;57018;50.278;19.134;2022-08-19T05:29:25;28.00;25.00;17.00
69746;PMS7003;57018;50.278;19.134;2022-08-19T05:31:53;28.25;25.50;18.50
69746;PMS7003;57018;50.278;19.134;2022-08-19T05:34:21;27.75;27.50;18.00
69746;PMS7003;57018;50.278;19.134;2022-08-19T05:36:50;27.00;25.50;16.75
69746;PMS7003;57018;50.278;19.134;2022-08-19T05:39:20;25.75;23.75;17.25
69746;PMS7003;57018;50.278;19.134;2022-08-19T05:41:48;26.75;26.50;17.25
69746;PMS7003;57018;50.278;19.134;2022-08-19T05:44:18;27.25;25.25;17.75
69746;PMS7003;57018;50.278;19.134;2022-08-19T05:46:45;29.75;25.75;17.75
69746;PMS7003;57018;50.278;19.134;2022-08-19T05:49:12;29.25;23.50;17.50
69746;PMS7003;57018;50.278;19.134;2022-08-19T05:51:41;28.75;27.50;18.00
69746;PMS7003;57018;50.278;19.134;2022-08-19T05:54:08;25.25;24.75;18.00
69746;PMS7003;57018;50.278;19.134;2022-08-19T05:56:36;27.00;24.50;17.75
69746;PMS7003;57018;50.278;19.134;2022-08-19T05:59:04;27.50;24.25;17.75
69746;PMS7003;57018;50.278;19.134;2022-08-19T06:01:37;27.50;24.75;18.25
69746;PMS7003;57018;50.278;19.134;2022-08-19T06:04:05;23.00;22.50;16.75
69746;PMS7003;57018;50.278;19.134;2022-08-19T06:06:32;25.75;22.75;16.75
69746;PMS7003;57018;50.278;19.134;2022-08-19T06:09:04;22.50;22.50;15.75
69746;PMS7003;57018;50.278;19.134;2022-08-19T06:11:36;26.75;25.75;19.50
69746;PMS7003;57018;50.278;19.134;2022-08-19T06:14:18;30.50;27.25;18.50
69746;PMS7003;57018;50.278;19.134;2022-08-19T06:16:46;30.50;28.50;19.00
69746;PMS7003;57018;50.278;19.134;2022-08-19T06:19:13;29.50;25.25;18.00
69746;PMS7003;57018;50.278;19.134;2022-08-19T06:21:42;28.25;28.00;19.50
69746;PMS7003;57018;50.278;19.134;2022-08-19T06:24:11;28.50;27.00;18.75
69746;PMS7003;57018;50.278;19.134;2022-08-19T06:26:40;26.25;26.25;19.25
69746;PMS7003;57018;50.278;19.134;2022-08-19T06:29:09;25.25;23.75;16.00
69746;PMS7003;57018;50.278;19.134;2022-08-19T06:31:36;43.75;33.75;22.75
69746;PMS7003;57018;50.278;19.134;2022-08-19T06:34:04;27.75;26.25;18.50
69746;PMS7003;57018;50.278;19.134;2022-08-19T06:36:36;28.75;25.50;17.50
69746;PMS7003;57018;50.278;19.134;2022-08-19T06:41:50;23.75;22.75;15.50
69746;PMS7003;57018;50.278;19.134;2022-08-19T06:44:20;25.00;24.00;16.50
69746;PMS7003;57018;50.278;19.134;2022-08-19T06:46:48;27.75;25.75;17.50
69746;PMS7003;57018;50.278;19.134;2022-08-19T06:49:15;28.25;25.75;17.50
69746;PMS7003;57018;50.278;19.134;2022-08-19T06:51:43;26.75;26.50;18.75
69746;PMS7003;57018;50.278;19.134;2022-08-19T06:54:13;26.00;24.25;16.25
69746;PMS7003;57018;50.278;19.134;2022-08-19T06:56:40;26.00;24.25;16.50
69746;PMS7003;57018;50.278;19.134;2022-08-19T06:59:11;25.75;24.75;17.75
69746;PMS7003;57018;50.278;19.134;2022-08-19T07:01:43;25.00;25.00;18.25
69746;PMS7003;57018;50.278;19.134;2022-08-19T07:04:13;27.75;26.50;18.00
69746;PMS7003;57018;50.278;19.134;2022-08-19T07:06:41;32.75;29.00;18.25
69746;PMS7003;57018;50.278;19.134;2022-08-19T07:09:08;23.00;22.75;16.75
69746;PMS7003;57018;50.278;19.134;2022-08-19T07:11:35;27.75;26.00;17.75
69746;PMS7003;57018;50.278;19.134;2022-08-19T07:14:02;20.50;20.50;17.00
69746;PMS7003;57018;50.278;19.134;2022-08-19T07:16:30;25.00;25.00;15.75
69746;PMS7003;57018;50.278;19.134;2022-08-19T07:18:57;24.50;21.75;15.75
69746;PMS7003;57018;50.278;19.134;2022-08-19T07:21:24;27.00;24.00;16.00
69746;PMS7003;57018;50.278;19.134;2022-08-19T07:23:53;23.75;23.50;17.00
69746;PMS7003;57018;50.278;19.134;2022-08-19T07:26:22;27.50;26.25;15.25
69746;PMS7003;57018;50.278;19.134;2022-08-19T07:28:50;25.25;24.00;16.50
69746;PMS7003;57018;50.278;19.134;2022-08-19T07:31:17;20.75;20.75;14.25
69746;PMS7003;57018;50.278;19.134;2022-08-19T07:33:46;20.75;19.75;13.25
69746;PMS7003;57018;50.278;19.134;2022-08-19T07:36:22;28.25;25.75;17.50
69746;PMS7003;57018;50.278;19.134;2022-08-19T07:38:46;27.75;23.75;15.25
69746;PMS7003;57018;50.278;19.134;2022-08-19T07:41:16;22.50;22.00;14.75
69746;PMS7003;57018;50.278;19.134;2022-08-19T07:43:44;26.00;24.75;16.50
69746;PMS7003;57018;50.278;19.134;2022-08-19T07:46:11;26.00;25.75;19.25
69746;PMS7003;57018;50.278;19.134;2022-08-19T07:48:39;21.75;21.75;16.75
69746;PMS7003;57018;50.278;19.134;2022-08-19T07:51:09;23.75;22.00;16.50
69746;PMS7003;57018;50.278;19.134;2022-08-19T07:53:36;23.50;21.50;16.00
69746;PMS7003;57018;50.278;19.134;2022-08-19T07:56:03;21.00;20.25;15.00
69746;PMS7003;57018;50.278;19.134;2022-08-19T07:58:32;19.75;19.75;15.00
69746;PMS7003;57018;50.278;19.134;2022-08-19T08:01:00;20.50;19.00;14.25
69746;PMS7003;57018;50.278;19.134;2022-08-19T08:03:28;25.75;23.00;16.25
69746;PMS7003;57018;50.278;19.134;2022-08-19T08:06:14;21.50;21.50;15.50
69746;PMS7003;57018;50.278;19.134;2022-08-19T08:08:59;22.50;21.50;15.75
69746;PMS7003;57018;50.278;19.134;2022-08-19T08:11:54;22.25;21.25;15.00
69746;PMS7003;57018;50.278;19.134;2022-08-19T08:16:55;21.75;21.50;15.50
69746;PMS7003;57018;50.278;19.134;2022-08-19T08:19:22;20.25;19.50;14.25
69746;PMS7003;57018;50.278;19.134;2022-08-19T08:21:50;21.25;20.50;15.50
69746;PMS7003;57018;50.278;19.134;2022-08-19T08:24:17;21.50;19.50;16.50
69746;PMS7003;57018;50.278;19.134;2022-08-19T08:26:44;22.00;20.25;14.75
69746;PMS7003;57018;50.278;19.134;2022-08-19T08:29:11;24.75;22.75;16.75
69746;PMS7003;57018;50.278;19.134;2022-08-19T08:31:39;27.00;23.25;15.50
69746;PMS7003;57018;50.278;19.134;2022-08-19T08:34:07;26.25;23.75;16.00
69746;PMS7003;57018;50.278;19.134;2022-08-19T08:36:38;27.75;25.50;17.00
69746;PMS7003;57018;50.278;19.134;2022-08-19T08:39:05;21.50;21.50;15.50
69746;PMS7003;57018;50.278;19.134;2022-08-19T08:41:37;23.75;21.75;15.75
69746;PMS7003;57018;50.278;19.134;2022-08-19T08:44:06;22.75;21.25;16.00
69746;PMS7003;57018;50.278;19.134;2022-08-19T08:46:35;22.00;22.00;15.25
69746;PMS7003;57018;50.278;19.134;2022-08-19T08:49:11;19.25;18.50;14.50
69746;PMS7003;57018;50.278;19.134;2022-08-19T08:51:40;21.00;20.75;15.25
69746;PMS7003;57018;50.278;19.134;2022-08-19T08:54:10;19.00;19.00;15.00
69746;PMS7003;57018;50.278;19.134;2022-08-19T08:56:41;20.25;20.25;14.75
69746;PMS7003;57018;50.278;19.134;2022-08-19T08:59:12;25.00;21.75;16.00
69746;PMS7003;57018;50.278;19.134;2022-08-19T09:01:51;26.50;24.50;16.75
69746;PMS7003;57018;50.278;19.134;2022-08-19T09:04:18;21.75;21.75;15.50
69746;PMS7003;57018;50.278;19.134;2022-08-19T09:06:51;22.25;21.25;15.50
69746;PMS7003;57018;50.278;19.134;2022-08-19T09:09:35;22.75;20.50;15.75
69746;PMS7003;57018;50.278;19.134;2022-08-19T09:12:23;22.25;21.00;16.25
69746;PMS7003;57018;50.278;19.134;2022-08-19T09:14:50;24.00;22.25;15.50
69746;PMS7003;57018;50.278;19.134;2022-08-19T09:17:20;20.75;19.50;14.00
69746;PMS7003;57018;50.278;19.134;2022-08-19T09:19:52;19.50;18.75;14.50
69746;PMS7003;57018;50.278;19.134;2022-08-19T09:22:20;20.50;19.25;13.25
69746;PMS7003;57018;50.278;19.134;2022-08-19T09:24:51;20.50;19.75;12.75
69746;PMS7003;57018;50.278;19.134;2022-08-19T09:27:18;20.25;18.00;13.50
69746;PMS7003;57018;50.278;19.134;2022-08-19T09:29:46;20.00;19.00;13.25
69746;PMS7003;57018;50.278;19.134;2022-08-19T09:32:14;18.75;17.50;12.75
69746;PMS7003;57018;50.278;19.134;2022-08-19T09:34:42;16.50;16.50;12.50
69746;PMS7003;57018;50.278;19.134;2022-08-19T09:37:08;17.00;17.00;14.25
69746;PMS7003;57018;50.278;19.134;2022-08-19T09:39:35;17.50;17.50;13.50
69746;PMS7003;57018;50.278;19.134;2022-08-19T09:42:01;16.75;16.50;13.75
69746;PMS7003;57018;50.278;19.134;2022-08-19T09:44:29;19.25;17.25;11.75
69746;PMS7003;57018;50.278;19.134;2022-08-19T09:46:55;15.00;15.00;10.25
69746;PMS7003;57018;50.278;19.134;2022-08-19T09:49:21;16.00;16.00;10.50
69746;PMS7003;57018;50.278;19.134;2022-08-19T09:51:51;17.75;17.25;12.00
69746;PMS7003;57018;50.278;19.134;2022-08-19T09:54:21;18.25;18.25;13.00
69746;PMS7003;57018;50.278;19.134;2022-08-19T09:56:47;19.50;18.25;13.50
69746;PMS7003;57018;50.278;19.134;2022-08-19T09:59:14;15.00;15.00;11.00
69746;PMS7003;57018;50.278;19.134;2022-08-19T10:01:40;20.25;18.50;12.75
69746;PMS7003;57018;50.278;19.134;2022-08-19T10:04:06;13.75;13.50;11.00
69746;PMS7003;57018;50.278;19.134;2022-08-19T10:06:37;17.00;17.00;13.25
69746;PMS7003;57018;50.278;19.134;2022-08-19T10:09:05;14.00;14.00;10.50
69746;PMS7003;57018;50.278;19.134;2022-08-19T10:11:33;14.25;14.25;11.25
69746;PMS7003;57018;50.278;19.134;2022-08-19T10:14:01;20.75;19.25;13.75
69746;PMS7003;57018;50.278;19.134;2022-08-19T10:16:28;15.00;14.25;11.25
69746;PMS7003;57018;50.278;19.134;2022-08-19T10:18:54;21.50;20.50;14.25
69746;PMS7003;57018;50.278;19.134;2022-08-19T10:21:25;12.25;12.25;10.00
69746;PMS7003;57018;50.278;19.134;2022-08-19T10:23:50;20.00;20.00;14.75
69746;PMS7003;57018;50.278;19.134;2022-08-19T10:26:19;19.75;19.50;13.50
69746;PMS7003;57018;50.278;19.134;2022-08-19T10:28:48;18.25;18.25;13.75
69746;PMS7003;57018;50.278;19.134;2022-08-19T10:31:20;19.25;19.25;14.25
69746;PMS7003;57018;50.278;19.134;2022-08-19T10:33:45;22.00;21.00;13.25
69746;PMS7003;57018;50.278;19.134;2022-08-19T10:36:15;19.50;19.50;14.00
69746;PMS7003;57018;50.278;19.134;2022-08-19T10:38:43;18.50;17.00;13.75
69746;PMS7003;57018;50.278;19.134;2022-08-19T10:41:19;17.00;16.00;12.75
69746;PMS7003;57018;50.278;19.134;2022-08-19T10:43:52;18.75;18.50;12.75
69746;PMS7003;57018;50.278;19.134;2022-08-19T10:46:20;18.25;17.50;12.50
69746;PMS7003;57018;50.278;19.134;2022-08-19T10:48:48;19.50;18.00;13.25
69746;PMS7003;57018;50.278;19.134;2022-08-19T10:51:15;17.00;16.50;12.50
69746;PMS7003;57018;50.278;19.134;2022-08-19T10:54:00;20.50;19.00;13.50
69746;PMS7003;57018;50.278;19.134;2022-08-19T10:56:27;20.75;19.00;13.50
69746;PMS7003;57018;50.278;19.134;2022-08-19T10:59:12;18.50;18.50;14.00
69746;PMS7003;57018;50.278;19.134;2022-08-19T11:01:40;23.75;21.75;16.25
69746;PMS7003;57018;50.278;19.134;2022-08-19T11:04:09;19.00;19.00;14.75
69746;PMS7003;57018;50.278;19.134;2022-08-19T11:06:39;19.75;19.75;14.25
69746;PMS7003;57018;50.278;19.134;2022-08-19T11:09:08;19.00;18.50;13.50
69746;PMS7003;57018;50.278;19.134;2022-08-19T11:11:37;22.75;20.00;14.75
69746;PMS7003;57018;50.278;19.134;2022-08-19T11:14:07;22.00;19.50;15.50
69746;PMS7003;57018;50.278;19.134;2022-08-19T11:16:36;18.25;17.00;11.75
69746;PMS7003;57018;50.278;19.134;2022-08-19T11:19:04;20.25;20.25;15.75
69746;PMS7003;57018;50.278;19.134;2022-08-19T11:21:37;18.00;18.00;13.00
69746;PMS7003;57018;50.278;19.134;2022-08-19T11:24:06;19.75;18.75;13.75
69746;PMS7003;57018;50.278;19.134;2022-08-19T11:26:35;20.00;19.75;12.75
69746;PMS7003;57018;50.278;19.134;2022-08-19T11:29:02;19.00;16.50;12.25
69746;PMS7003;57018;50.278;19.134;2022-08-19T11:31:32;19.25;18.50;13.50
69746;PMS7003;57018;50.278;19.134;2022-08-19T11:34:02;13.75;13.75;9.50
69746;PMS7003;57018;50.278;19.134;2022-08-19T11:36:30;16.00;15.25;10.50
69746;PMS7003;57018;50.278;19.134;2022-08-19T11:38:57;18.00;17.25;13.00
69746;PMS7003;57018;50.278;19.134;2022-08-19T11:41:24;20.75;17.00;11.25
69746;PMS7003;57018;50.278;19.134;2022-08-19T11:43:51;18.00;17.75;12.00
69746;PMS7003;57018;50.278;19.134;2022-08-19T11:46:21;20.25;17.00;12.50
69746;PMS7003;57018;50.278;19.134;2022-08-19T11:48:49;20.50;20.25;14.75
69746;PMS7003;57018;50.278;19.134;2022-08-19T11:51:20;24.25;20.25;13.50
69746;PMS7003;57018;50.278;19.134;2022-08-19T11:53:50;18.75;18.50;14.50
69746;PMS7003;57018;50.278;19.134;2022-08-19T11:56:17;16.25;15.00;11.25
69746;PMS7003;57018;50.278;19.134;2022-08-19T11:58:44;16.50;15.50;11.00
69746;PMS7003;57018;50.278;19.134;2022-08-19T12:01:11;21.75;20.75;14.00
69746;PMS7003;57018;50.278;19.134;2022-08-19T12:03:54;19.00;18.50;13.25
69746;PMS7003;57018;50.278;19.134;2022-08-19T12:06:22;17.75;17.00;12.00
69746;PMS7003;57018;50.278;19.134;2022-08-19T12:08:53;20.00;18.75;13.75
69746;PMS7003;57018;50.278;19.134;2022-08-19T12:11:24;16.50;16.50;11.75
69746;PMS7003;57018;50.278;19.134;2022-08-19T12:13:51;16.00;15.00;12.50
69746;PMS7003;57018;50.278;19.134;2022-08-19T12:16:21;15.75;14.75;9.25
69746;PMS7003;57018;50.278;19.134;2022-08-19T12:18:49;16.25;16.25;11.25
69746;PMS7003;57018;50.278;19.134;2022-08-19T12:21:17;17.00;16.25;11.75
69746;PMS7003;57018;50.278;19.134;2022-08-19T12:23:47;16.50;16.50;12.25
69746;PMS7003;57018;50.278;19.134;2022-08-19T12:26:15;20.50;19.00;12.75
69746;PMS7003;57018;50.278;19.134;2022-08-19T12:28:42;21.75;18.50;12.50
69746;PMS7003;57018;50.278;19.134;2022-08-19T12:31:08;14.75;14.50;10.50
69746;PMS7003;57018;50.278;19.134;2022-08-19T12:33:37;18.50;18.50;13.50
69746;PMS7003;57018;50.278;19.134;2022-08-19T12:36:05;15.75;15.75;11.25
69746;PMS7003;57018;50.278;19.134;2022-08-19T12:38:34;17.25;16.50;12.25
69746;PMS7003;57018;50.278;19.134;2022-08-19T12:41:14;17.75;17.75;13.00
69746;PMS7003;57018;50.278;19.134;2022-08-19T12:43:44;17.25;17.25;12.25
69746;PMS7003;57018;50.278;19.134;2022-08-19T12:46:11;16.25;16.25;11.75
69746;PMS7003;57018;50.278;19.134;2022-08-19T12:48:38;18.75;18.00;12.50
69746;PMS7003;57018;50.278;19.134;2022-08-19T12:51:07;18.50;18.00;16.00
69746;PMS7003;57018;50.278;19.134;2022-08-19T12:53:35;23.75;20.50;15.25
69746;PMS7003;57018;50.278;19.134;2022-08-19T12:56:03;16.75;14.50;11.00
69746;PMS7003;57018;50.278;19.134;2022-08-19T12:58:30;17.00;16.00;11.00
69746;PMS7003;57018;50.278;19.134;2022-08-19T13:00:57;14.75;14.75;11.00
69746;PMS7003;57018;50.278;19.134;2022-08-19T13:03:24;13.75;13.25;10.25
69746;PMS7003;57018;50.278;19.134;2022-08-19T13:05:52;15.00;12.75;9.50
69746;PMS7003;57018;50.278;19.134;2022-08-19T13:08:18;13.50;13.50;10.50
69746;PMS7003;57018;50.278;19.134;2022-08-19T13:10:44;14.50;12.75;9.75
69746;PMS7003;57018;50.278;19.134;2022-08-19T13:13:10;14.00;14.00;10.25
69746;PMS7003;57018;50.278;19.134;2022-08-19T13:15:39;15.25;15.25;10.25
69746;PMS7003;57018;50.278;19.134;2022-08-19T13:18:06;15.50;15.50;11.75
69746;PMS7003;57018;50.278;19.134;2022-08-19T13:20:34;13.50;13.25;9.75
69746;PMS7003;57018;50.278;19.134;2022-08-19T13:23:01;18.00;15.50;11.50
69746;PMS7003;57018;50.278;19.134;2022-08-19T13:25:27;19.00;16.75;11.25
69746;PMS7003;57018;50.278;19.134;2022-08-19T13:27:53;14.75;13.25;10.75
69746;PMS7003;57018;50.278;19.134;2022-08-19T13:30:21;13.75;12.75;10.25
69746;PMS7003;57018;50.278;19.134;2022-08-19T13:33:07;15.75;14.75;9.25
69746;PMS7003;57018;50.278;19.134;2022-08-19T13:35:45;14.75;14.75;11.00
69746;PMS7003;57018;50.278;19.134;2022-08-19T13:38:12;15.50;12.50;9.50
69746;PMS7003;57018;50.278;19.134;2022-08-19T13:40:40;14.25;14.25;10.25
69746;PMS7003;57018;50.278;19.134;2022-08-19T13:43:07;13.25;13.25;9.50
69746;PMS7003;57018;50.278;19.134;2022-08-19T13:45:34;15.50;13.75;10.25
69746;PMS7003;57018;50.278;19.134;2022-08-19T13:48:02;15.75;14.75;11.75